Time;durP1;ratioP1;P1;durP2;ratioP2;P2;SDS_P1;SDS_P2;PMS_P1;PMS_P2;Temp;Humidity;BMP_temperature;BMP_pressure;BME280_temperature;BME280_humidity;BME280_pressure;Samples;Min_cycle;Max_cycle;Signal;HPM_P1;HPM_P2
2024/01/18 00:00:07;;;;;;;11.57;2.67;;;14.60;67.50;;;;;;348268;28;1063;-53
2024/01/18 00:00:18;;;;;;;11.15;2.53;;;14.70;67.50;;;;;;348331;28;1224;-53
2024/01/18 00:00:29;;;;;;;10.02;2.55;;;14.60;67.50;;;;;;348262;28;983;-53
2024/01/18 00:00:40;;;;;;;7.70;2.30;;;14.60;67.50;;;;;;348329;28;829;-51
2024/01/18 00:00:50;;;;;;;7.13;2.27;;;14.50;67.70;;;;;;348297;28;1416;-53
2024/01/18 00:01:01;;;;;;;6.55;2.25;;;14.50;67.70;;;;;;348320;28;995;-53
2024/01/18 00:01:12;;;;;;;7.30;2.30;;;14.50;67.80;;;;;;348317;28;1460;-52
2024/01/18 00:01:23;;;;;;;7.28;2.30;;;14.50;67.80;;;;;;348424;28;829;-53
2024/01/18 00:01:33;;;;;;;7.27;2.30;;;14.50;67.80;;;;;;348235;28;1519;-51
2024/01/18 00:01:53;;;;;;;6.93;2.30;;;14.50;67.80;;;;;;348331;28;1450;-53
2024/01/18 00:02:04;;;;;;;6.90;2.28;;;14.60;67.90;;;;;;348212;28;1047;-52
2024/01/18 00:02:15;;;;;;;7.88;2.20;;;14.50;67.80;;;;;;348330;28;1043;-52
2024/01/18 00:02:25;;;;;;;9.73;2.47;;;14.50;67.90;;;;;;348314;28;902;-52
2024/01/18 00:02:36;;;;;;;11.55;2.42;;;14.50;67.90;;;;;;348390;28;805;-53
2024/01/18 00:02:47;;;;;;;11.40;2.45;;;14.50;68.00;;;;;;348358;28;809;-53
2024/01/18 00:02:58;;;;;;;11.02;2.40;;;14.50;68.10;;;;;;348265;28;994;-52
2024/01/18 00:03:08;;;;;;;9.77;2.53;;;14.50;68.20;;;;;;348383;28;852;-53
2024/01/18 00:03:19;;;;;;;10.17;2.70;;;14.50;68.00;;;;;;348373;28;868;-54
2024/01/18 00:03:30;;;;;;;9.68;2.70;;;14.50;68.10;;;;;;348347;28;899;-52
2024/01/18 00:03:41;;;;;;;8.20;2.42;;;14.50;68.10;;;;;;348364;28;960;-52
2024/01/18 00:03:51;;;;;;;8.20;2.40;;;14.50;68.20;;;;;;348256;28;1002;-52
2024/01/18 00:04:03;;;;;;;9.80;2.50;;;14.50;68.10;;;;;;348370;28;1791;-52
2024/01/18 00:04:14;;;;;;;9.55;2.38;;;14.60;68.10;;;;;;348367;28;826;-52
2024/01/18 00:04:25;;;;;;;9.18;2.35;;;14.60;68.10;;;;;;348274;28;1075;-53
2024/01/18 00:04:35;;;;;;;8.43;2.28;;;14.60;68.10;;;;;;348335;28;1027;-53
2024/01/18 00:04:46;;;;;;;9.45;2.33;;;14.60;68.10;;;;;;348366;28;1067;-52
2024/01/18 00:04:57;;;;;;;11.33;3.13;;;14.60;68.10;;;;;;348270;28;946;-54
2024/01/18 00:05:08;;;;;;;10.98;3.40;;;14.60;68.00;;;;;;348340;28;904;-53
2024/01/18 00:05:19;;;;;;;10.32;3.45;;;14.60;68.10;;;;;;348325;28;1054;-53
2024/01/18 00:05:30;;;;;;;8.57;2.83;;;14.60;68.20;;;;;;348307;28;930;-52
2024/01/18 00:05:41;;;;;;;9.13;2.70;;;14.60;68.10;;;;;;348373;28;867;-53
2024/01/18 00:05:51;;;;;;;9.55;2.40;;;14.60;68.10;;;;;;348326;28;876;-53
2024/01/18 00:06:02;;;;;;;10.43;2.40;;;14.60;68.00;;;;;;348273;28;1815;-53
2024/01/18 00:06:13;;;;;;;10.13;2.40;;;14.70;68.10;;;;;;348332;28;872;-54
2024/01/18 00:06:24;;;;;;;8.88;2.30;;;14.60;68.10;;;;;;348388;28;1090;-52
2024/01/18 00:06:35;;;;;;;6.85;2.20;;;14.60;68.00;;;;;;348227;28;1148;-53
2024/01/18 00:06:46;;;;;;;6.07;2.33;;;14.70;68.00;;;;;;348267;28;1449;-52
2024/01/18 00:06:56;;;;;;;7.80;2.50;;;14.70;68.00;;;;;;348364;28;1086;-53
2024/01/18 00:07:07;;;;;;;8.93;2.45;;;14.70;68.00;;;;;;348318;28;1062;-52
2024/01/18 00:07:18;;;;;;;9.30;2.35;;;14.70;68.10;;;;;;348288;28;1054;-53
2024/01/18 00:07:30;;;;;;;8.88;2.75;;;14.70;68.00;;;;;;348315;28;1086;-51
2024/01/18 00:07:40;;;;;;;10.40;3.08;;;14.60;68.00;;;;;;348242;28;1990;-52
2024/01/18 00:07:51;;;;;;;9.63;3.13;;;14.60;67.90;;;;;;348360;28;1015;-52
2024/01/18 00:08:02;;;;;;;9.35;2.88;;;14.50;68.10;;;;;;348266;28;1544;-52
2024/01/18 00:08:12;;;;;;;7.43;2.67;;;14.60;68.20;;;;;;348249;28;1015;-52
2024/01/18 00:08:23;;;;;;;7.18;2.63;;;14.50;68.20;;;;;;348317;28;1560;-54
2024/01/18 00:08:34;;;;;;;7.63;2.70;;;14.50;68.30;;;;;;348312;28;1161;-54
2024/01/18 00:08:45;;;;;;;9.85;2.75;;;14.50;68.30;;;;;;348242;28;1050;-53
2024/01/18 00:08:55;;;;;;;10.50;2.53;;;14.50;68.30;;;;;;348377;28;956;-52
2024/01/18 00:09:06;;;;;;;10.43;2.33;;;14.50;68.40;;;;;;348337;28;983;-53
2024/01/18 00:09:17;;;;;;;8.50;2.13;;;14.40;68.40;;;;;;348271;28;1062;-53
2024/01/18 00:09:28;;;;;;;8.23;2.17;;;14.50;68.50;;;;;;348371;28;943;-52
2024/01/18 00:09:38;;;;;;;8.85;2.17;;;14.50;68.50;;;;;;348311;28;1098;-52
2024/01/18 00:09:49;;;;;;;9.23;2.38;;;14.50;68.40;;;;;;348248;28;1430;-52
2024/01/18 00:10:00;;;;;;;8.75;2.45;;;14.50;68.30;;;;;;348360;28;963;-52
2024/01/18 00:10:11;;;;;;;8.35;2.45;;;14.50;68.30;;;;;;348307;28;1039;-52
2024/01/18 00:10:26;;;;;;;10.07;2.88;;;14.50;68.30;;;;;;348195;28;974;-53
2024/01/18 00:10:37;;;;;;;9.88;2.70;;;14.50;68.20;;;;;;348314;28;1076;-52
2024/01/18 00:10:48;;;;;;;8.18;2.30;;;14.30;68.50;;;;;;348393;28;817;-51
2024/01/18 00:11:00;;;;;;;8.50;2.42;;;14.30;68.90;;;;;;348228;28;1093;-53
2024/01/18 00:11:11;;;;;;;8.95;2.53;;;14.30;69.00;;;;;;348385;28;928;-54
2024/01/18 00:11:22;;;;;;;7.90;2.30;;;14.20;69.10;;;;;;348315;28;1089;-53
2024/01/18 00:11:33;;;;;;;8.57;2.10;;;14.20;69.20;;;;;;348199;28;974;-52
2024/01/18 00:11:44;;;;;;;8.68;2.47;;;14.30;69.30;;;;;;348367;28;864;-52
2024/01/18 00:11:54;;;;;;;8.85;2.90;;;14.30;69.20;;;;;;348349;28;948;-52
2024/01/18 00:12:06;;;;;;;8.07;3.20;;;14.30;69.10;;;;;;348272;28;1781;-52
2024/01/18 00:12:16;;;;;;;7.70;2.63;;;14.30;69.10;;;;;;348298;28;1856;-53
2024/01/18 00:12:27;;;;;;;6.97;2.57;;;14.40;69.10;;;;;;348373;28;952;-52
2024/01/18 00:12:38;;;;;;;7.63;2.50;;;14.40;69.00;;;;;;348225;28;1087;-51
2024/01/18 00:12:49;;;;;;;7.30;2.55;;;14.30;68.90;;;;;;348263;28;1149;-52
2024/01/18 00:13:00;;;;;;;8.20;2.43;;;14.30;69.00;;;;;;348353;28;959;-52
2024/01/18 00:13:11;;;;;;;8.05;2.30;;;14.30;69.10;;;;;;348280;28;983;-52
2024/01/18 00:13:22;;;;;;;7.80;2.10;;;14.40;69.20;;;;;;348319;28;940;-52
2024/01/18 00:13:33;;;;;;;7.13;2.10;;;14.40;69.20;;;;;;348253;28;1701;-52
2024/01/18 00:13:47;;;;;;;7.35;2.30;;;14.40;69.10;;;;;;348270;28;1083;-52
2024/01/18 00:13:58;;;;;;;7.82;2.25;;;14.40;69.00;;;;;;348308;28;1598;-53
2024/01/18 00:14:09;;;;;;;7.43;2.20;;;14.40;68.90;;;;;;348325;28;1121;-52
2024/01/18 00:14:20;;;;;;;8.25;2.50;;;14.50;68.90;;;;;;348267;28;1086;-53
2024/01/18 00:14:31;;;;;;;9.10;2.67;;;14.50;68.90;;;;;;348367;28;971;-52
2024/01/18 00:14:41;;;;;;;10.27;2.58;;;14.40;68.90;;;;;;348307;28;1117;-52
2024/01/18 00:14:52;;;;;;;9.10;2.60;;;14.40;69.00;;;;;;348352;28;1019;-53
2024/01/18 00:15:03;;;;;;;8.60;2.83;;;14.40;69.10;;;;;;348225;28;1102;-53
2024/01/18 00:15:14;;;;;;;8.25;2.95;;;14.40;69.20;;;;;;348294;28;1082;-52
2024/01/18 00:15:25;;;;;;;9.13;2.85;;;14.40;69.20;;;;;;348313;28;1003;-52
2024/01/18 00:15:36;;;;;;;9.05;2.78;;;14.40;69.20;;;;;;348304;28;1016;-52
2024/01/18 00:15:46;;;;;;;9.97;2.63;;;14.50;69.20;;;;;;348291;28;1110;-52
2024/01/18 00:15:57;;;;;;;9.15;2.30;;;14.50;69.20;;;;;;348312;28;1154;-53
2024/01/18 00:16:08;;;;;;;9.13;2.00;;;14.50;69.30;;;;;;348210;28;1468;-52
2024/01/18 00:16:19;;;;;;;8.18;2.03;;;14.50;69.20;;;;;;348339;28;1331;-52
2024/01/18 00:16:32;;;;;;;8.25;2.10;;;14.50;69.20;;;;;;348178;28;1479;-52
2024/01/18 00:16:43;;;;;;;8.40;2.17;;;14.50;69.20;;;;;;348350;28;983;-52
2024/01/18 00:16:54;;;;;;;8.13;2.10;;;14.50;69.10;;;;;;348380;28;1015;-54
2024/01/18 00:17:05;;;;;;;9.25;2.17;;;14.50;69.10;;;;;;348331;28;1003;-53
2024/01/18 00:17:16;;;;;;;8.45;2.10;;;14.50;69.10;;;;;;348270;28;1349;-53
2024/01/18 00:17:27;;;;;;;8.20;2.17;;;14.60;69.10;;;;;;348282;28;1449;-53
2024/01/18 00:17:38;;;;;;;7.33;2.30;;;14.60;69.00;;;;;;348360;28;983;-54
2024/01/18 00:17:49;;;;;;;6.80;2.13;;;14.60;68.90;;;;;;348381;28;884;-53
2024/01/18 00:17:59;;;;;;;6.00;2.10;;;14.50;69.00;;;;;;348220;28;1216;-53
2024/01/18 00:18:11;;;;;;;6.00;1.85;;;14.50;69.10;;;;;;348251;28;1935;-51
2024/01/18 00:18:21;;;;;;;5.88;2.13;;;14.40;69.30;;;;;;348244;28;1918;-53
2024/01/18 00:18:32;;;;;;;6.38;2.10;;;14.40;69.50;;;;;;348302;28;1474;-53
2024/01/18 00:18:43;;;;;;;7.22;2.25;;;14.40;69.60;;;;;;348232;28;1023;-53
2024/01/18 00:18:54;;;;;;;8.00;2.07;;;14.40;69.50;;;;;;348328;28;1007;-53
2024/01/18 00:19:04;;;;;;;8.18;2.20;;;14.40;69.70;;;;;;348369;28;826;-52
2024/01/18 00:19:15;;;;;;;9.45;2.40;;;14.40;69.70;;;;;;348290;28;1157;-53
2024/01/18 00:19:26;;;;;;;8.20;2.20;;;14.40;69.80;;;;;;348260;28;983;-52
2024/01/18 00:19:37;;;;;;;6.90;1.95;;;14.50;69.70;;;;;;348290;28;1102;-52
2024/01/18 00:19:47;;;;;;;5.40;1.83;;;14.50;69.70;;;;;;348288;28;964;-52
2024/01/18 00:19:58;;;;;;;6.50;2.00;;;14.40;69.70;;;;;;348267;28;2286;-52
2024/01/18 00:20:10;;;;;;;8.85;2.17;;;14.50;69.90;;;;;;348248;28;1086;-53
2024/01/18 00:20:22;;;;;;;9.25;2.00;;;14.50;70.00;;;;;;348341;28;1114;-51
2024/01/18 00:20:33;;;;;;;7.97;1.95;;;14.50;70.00;;;;;;348307;28;1189;-53
2024/01/18 00:20:44;;;;;;;7.55;1.95;;;14.50;70.10;;;;;;348318;28;1062;-52
2024/01/18 00:20:54;;;;;;;8.10;1.77;;;14.50;70.20;;;;;;348197;28;1154;-52
2024/01/18 00:21:06;;;;;;;8.30;1.80;;;14.40;70.20;;;;;;348366;28;998;-52
2024/01/18 00:21:17;;;;;;;7.88;1.77;;;14.30;70.50;;;;;;348263;28;1158;-52
2024/01/18 00:21:28;;;;;;;6.23;1.67;;;14.30;70.80;;;;;;348303;28;1559;-52
2024/01/18 00:21:39;;;;;;;5.63;1.63;;;14.30;70.80;;;;;;348262;28;1059;-53
2024/01/18 00:21:50;;;;;;;4.80;1.70;;;14.20;70.80;;;;;;348300;28;1007;-53
2024/01/18 00:22:02;;;;;;;5.05;1.65;;;14.20;70.90;;;;;;348324;28;1154;-53
2024/01/18 00:22:13;;;;;;;5.10;1.50;;;14.20;71.00;;;;;;348305;28;1165;-51
2024/01/18 00:22:23;;;;;;;5.05;1.50;;;14.20;71.30;;;;;;348216;28;960;-52
2024/01/18 00:22:34;;;;;;;4.30;1.60;;;14.20;71.30;;;;;;348325;28;964;-52
2024/01/18 00:22:45;;;;;;;5.88;1.70;;;14.20;71.30;;;;;;348340;28;891;-53
2024/01/18 00:22:56;;;;;;;6.60;1.80;;;14.30;71.30;;;;;;348343;28;1054;-52
2024/01/18 00:23:06;;;;;;;7.18;1.80;;;14.20;71.20;;;;;;348306;28;991;-53
2024/01/18 00:23:17;;;;;;;5.70;1.70;;;14.20;71.20;;;;;;348297;28;1161;-52
2024/01/18 00:23:28;;;;;;;5.63;1.55;;;14.30;71.20;;;;;;348311;28;971;-52
2024/01/18 00:23:38;;;;;;;6.87;1.67;;;14.30;71.30;;;;;;348334;28;797;-52
2024/01/18 00:23:49;;;;;;;6.88;1.63;;;14.30;71.40;;;;;;348234;28;1486;-53
2024/01/18 00:24:00;;;;;;;5.97;1.50;;;14.30;71.50;;;;;;348310;28;916;-52
2024/01/18 00:24:11;;;;;;;4.88;1.48;;;14.40;71.40;;;;;;348298;28;983;-53
2024/01/18 00:24:22;;;;;;;5.25;1.50;;;14.40;71.30;;;;;;348327;28;971;-53
2024/01/18 00:24:32;;;;;;;5.30;1.60;;;14.40;71.10;;;;;;348246;28;1130;-51
2024/01/18 00:24:43;;;;;;;6.70;2.70;;;14.40;71.00;;;;;;348318;28;940;-53
2024/01/18 00:24:54;;;;;;;8.18;3.00;;;14.40;71.10;;;;;;348337;28;983;-54
2024/01/18 00:25:05;;;;;;;9.40;3.00;;;14.40;71.20;;;;;;348360;28;860;-52
2024/01/18 00:25:16;;;;;;;7.53;1.90;;;14.40;71.20;;;;;;348228;28;1127;-53
2024/01/18 00:25:27;;;;;;;6.88;1.80;;;14.40;71.30;;;;;;348270;28;1083;-53
2024/01/18 00:25:38;;;;;;;6.57;1.88;;;14.40;71.30;;;;;;348337;28;856;-52
2024/01/18 00:25:48;;;;;;;6.47;1.83;;;14.50;71.30;;;;;;348231;28;1115;-52
2024/01/18 00:25:59;;;;;;;5.47;1.77;;;14.40;71.40;;;;;;348246;28;1097;-52
2024/01/18 00:26:10;;;;;;;5.10;1.63;;;14.50;71.50;;;;;;348334;28;975;-53
2024/01/18 00:26:21;;;;;;;5.15;1.50;;;14.50;71.40;;;;;;348226;28;1018;-53
2024/01/18 00:26:32;;;;;;;4.95;1.40;;;14.40;71.50;;;;;;348296;28;987;-51
2024/01/18 00:26:43;;;;;;;6.57;1.67;;;14.40;71.40;;;;;;348357;28;821;-52
2024/01/18 00:26:54;;;;;;;6.88;2.03;;;14.40;71.50;;;;;;348225;28;915;-52
2024/01/18 00:27:06;;;;;;;6.53;2.00;;;14.40;71.70;;;;;;348361;28;1107;-53
2024/01/18 00:27:17;;;;;;;5.57;1.83;;;14.30;71.80;;;;;;348314;28;984;-53
2024/01/18 00:27:27;;;;;;;5.05;1.40;;;14.40;71.90;;;;;;348261;28;1093;-53
2024/01/18 00:27:38;;;;;;;5.28;1.40;;;14.40;71.90;;;;;;348351;28;821;-54
2024/01/18 00:27:49;;;;;;;4.68;1.30;;;14.50;71.70;;;;;;348379;28;1814;-53
2024/01/18 00:28:00;;;;;;;4.57;1.33;;;14.50;71.60;;;;;;348317;28;1114;-52
2024/01/18 00:28:10;;;;;;;3.40;1.20;;;14.50;71.60;;;;;;348275;28;1884;-52
2024/01/18 00:28:21;;;;;;;3.45;1.45;;;14.50;71.50;;;;;;348268;28;1015;-53
2024/01/18 00:28:32;;;;;;;5.25;1.92;;;14.50;71.40;;;;;;348150;28;1082;-52
2024/01/18 00:28:43;;;;;;;6.47;2.13;;;14.50;71.40;;;;;;348317;28;1742;-53
2024/01/18 00:28:53;;;;;;;6.87;1.87;;;14.50;71.40;;;;;;348341;28;908;-53
2024/01/18 00:29:04;;;;;;;7.22;2.40;;;14.50;71.40;;;;;;348197;28;1091;-52
2024/01/18 00:29:15;;;;;;;7.57;2.40;;;14.50;71.30;;;;;;348296;28;1012;-53
2024/01/18 00:29:26;;;;;;;8.68;2.45;;;14.50;71.30;;;;;;348261;28;1162;-54
2024/01/18 00:29:37;;;;;;;6.47;1.42;;;14.50;71.40;;;;;;348233;28;1176;-52
2024/01/18 00:29:47;;;;;;;5.68;1.30;;;14.50;71.50;;;;;;348305;28;1003;-53
2024/01/18 00:29:58;;;;;;;3.90;1.20;;;14.40;71.50;;;;;;348334;28;856;-52
2024/01/18 00:30:09;;;;;;;3.90;1.30;;;14.40;71.60;;;;;;348326;28;896;-53
2024/01/18 00:30:20;;;;;;;3.97;1.45;;;14.40;71.60;;;;;;348201;28;1031;-53
2024/01/18 00:30:31;;;;;;;5.32;1.83;;;14.40;71.70;;;;;;348261;28;1027;-52
2024/01/18 00:30:42;;;;;;;6.07;1.92;;;14.40;71.70;;;;;;348334;28;1004;-52
2024/01/18 00:30:52;;;;;;;6.60;2.13;;;14.30;71.80;;;;;;348314;28;987;-53
2024/01/18 00:31:03;;;;;;;7.18;2.42;;;14.40;71.90;;;;;;348159;28;1105;-53
2024/01/18 00:31:14;;;;;;;6.75;2.50;;;14.40;72.00;;;;;;348205;28;1568;-52
2024/01/18 00:31:25;;;;;;;7.10;2.47;;;14.40;72.00;;;;;;348317;28;1170;-53
2024/01/18 00:31:36;;;;;;;6.00;2.25;;;14.40;72.00;;;;;;348296;28;1090;-52
2024/01/18 00:31:46;;;;;;;7.57;2.25;;;14.30;71.90;;;;;;348225;28;1185;-52
2024/01/18 00:31:57;;;;;;;6.40;1.73;;;14.30;72.00;;;;;;348322;28;1023;-53
2024/01/18 00:32:08;;;;;;;6.20;2.05;;;14.30;72.10;;;;;;348317;28;909;-53
2024/01/18 00:32:19;;;;;;;5.73;2.20;;;14.30;72.00;;;;;;348276;28;1019;-51
2024/01/18 00:32:29;;;;;;;6.63;2.85;;;14.30;72.00;;;;;;348096;28;979;-53
2024/01/18 00:32:40;;;;;;;6.72;2.47;;;14.20;72.20;;;;;;348137;28;1079;-52
2024/01/18 00:32:51;;;;;;;5.30;2.25;;;14.20;72.10;;;;;;348294;28;1090;-52
2024/01/18 00:33:02;;;;;;;5.50;2.10;;;14.20;72.10;;;;;;348245;28;1197;-54
2024/01/18 00:33:12;;;;;;;5.70;2.00;;;14.20;72.30;;;;;;348200;28;1153;-52
2024/01/18 00:33:23;;;;;;;5.63;1.83;;;14.20;72.50;;;;;;348361;28;1034;-52
2024/01/18 00:33:34;;;;;;;3.80;1.10;;;14.20;72.60;;;;;;348381;28;880;-52
2024/01/18 00:33:45;;;;;;;3.70;1.10;;;14.20;72.60;;;;;;348269;28;1026;-53
2024/01/18 00:33:58;;;;;;;4.25;1.17;;;14.20;72.50;;;;;;348241;28;991;-52
2024/01/18 00:34:09;;;;;;;5.40;1.30;;;14.30;72.50;;;;;;348272;28;1005;-52
2024/01/18 00:34:20;;;;;;;6.67;1.70;;;14.30;72.50;;;;;;348331;28;849;-52
2024/01/18 00:34:31;;;;;;;6.80;2.67;;;14.30;72.20;;;;;;348271;28;1486;-53
2024/01/18 00:34:41;;;;;;;7.45;2.88;;;14.30;72.30;;;;;;348206;28;1724;-53
2024/01/18 00:34:52;;;;;;;6.32;2.15;;;14.30;72.30;;;;;;348340;28;976;-53
2024/01/18 00:35:03;;;;;;;5.07;1.53;;;14.30;72.20;;;;;;348246;28;1573;-51
2024/01/18 00:35:14;;;;;;;4.55;1.40;;;14.40;72.10;;;;;;348241;28;1138;-53
2024/01/18 00:35:25;;;;;;;5.07;1.30;;;14.40;72.10;;;;;;348282;28;883;-53
2024/01/18 00:35:36;;;;;;;4.72;1.30;;;14.40;72.00;;;;;;348260;28;976;-52
2024/01/18 00:35:48;;;;;;;6.68;3.72;;;14.50;71.90;;;;;;348290;28;965;-52
2024/01/18 00:35:59;;;;;;;8.02;5.00;;;14.40;71.80;;;;;;348248;28;885;-53
2024/01/18 00:36:10;;;;;;;8.07;5.07;;;14.40;71.80;;;;;;348322;28;1086;-53
2024/01/18 00:36:20;;;;;;;6.57;3.10;;;14.40;71.90;;;;;;348298;28;1130;-52
2024/01/18 00:36:31;;;;;;;4.80;1.90;;;14.50;71.90;;;;;;348328;28;1075;-52
2024/01/18 00:36:42;;;;;;;6.88;2.95;;;14.50;71.80;;;;;;348229;28;1308;-52
2024/01/18 00:36:53;;;;;;;8.43;4.13;;;14.50;71.80;;;;;;348251;28;1007;-52
2024/01/18 00:37:04;;;;;;;8.87;4.30;;;14.50;71.70;;;;;;348314;28;971;-52
2024/01/18 00:37:14;;;;;;;6.57;3.20;;;14.50;71.80;;;;;;348277;28;1043;-53
2024/01/18 00:37:25;;;;;;;5.20;2.20;;;14.50;71.70;;;;;;348222;28;950;-53
2024/01/18 00:37:36;;;;;;;7.13;2.90;;;14.50;71.80;;;;;;348340;28;868;-52
2024/01/18 00:37:46;;;;;;;8.13;2.85;;;14.40;71.60;;;;;;348270;28;1492;-53
2024/01/18 00:37:57;;;;;;;8.53;2.60;;;14.30;71.70;;;;;;348307;28;825;-53
2024/01/18 00:38:08;;;;;;;7.97;2.55;;;14.30;71.80;;;;;;348218;28;1051;-52
2024/01/18 00:38:19;;;;;;;11.85;6.55;;;14.30;71.80;;;;;;348224;28;1957;-53
2024/01/18 00:38:29;;;;;;;14.07;8.98;;;14.30;71.90;;;;;;348302;28;1058;-52
2024/01/18 00:38:41;;;;;;;14.40;9.17;;;14.30;72.00;;;;;;348375;28;952;-53
2024/01/18 00:38:52;;;;;;;11.43;7.22;;;14.30;72.10;;;;;;348202;28;1094;-53
2024/01/18 00:39:09;;;;;;;9.77;5.82;;;14.30;72.10;;;;;;348261;28;1118;-52
2024/01/18 00:39:21;;;;;;;15.50;10.98;;;14.30;72.10;;;;;;348230;28;1011;-52
2024/01/18 00:39:31;;;;;;;20.45;15.23;;;14.30;72.20;;;;;;348234;28;918;-52
2024/01/18 00:39:43;;;;;;;19.98;13.77;;;14.40;72.10;;;;;;348323;28;1082;-52
2024/01/18 00:39:54;;;;;;;11.52;5.70;;;14.40;71.80;;;;;;348228;28;1877;-52
2024/01/18 00:40:06;;;;;;;8.15;2.53;;;14.30;71.70;;;;;;348185;28;1050;-55
2024/01/18 00:40:17;;;;;;;6.22;2.00;;;14.30;71.70;;;;;;348215;28;1198;-52
2024/01/18 00:40:28;;;;;;;5.68;1.95;;;14.20;72.10;;;;;;348290;28;845;-52
2024/01/18 00:40:39;;;;;;;7.37;3.40;;;14.20;72.20;;;;;;348201;28;1011;-52
2024/01/18 00:40:49;;;;;;;7.20;3.83;;;14.20;72.20;;;;;;348263;28;1300;-53
2024/01/18 00:41:00;;;;;;;7.47;3.88;;;14.20;72.50;;;;;;348361;28;975;-54
2024/01/18 00:41:11;;;;;;;6.13;3.10;;;14.20;72.60;;;;;;348248;28;991;-53
2024/01/18 00:41:22;;;;;;;5.37;2.57;;;14.20;72.60;;;;;;348339;28;879;-52
2024/01/18 00:41:32;;;;;;;5.88;2.28;;;14.20;72.60;;;;;;348315;28;1070;-52
2024/01/18 00:41:43;;;;;;;6.47;1.90;;;14.20;72.60;;;;;;348240;28;1019;-53
2024/01/18 00:41:54;;;;;;;6.00;1.50;;;14.30;72.60;;;;;;348350;28;884;-56
2024/01/18 00:42:05;;;;;;;5.95;1.80;;;14.30;72.40;;;;;;348338;28;1020;-53
2024/01/18 00:42:16;;;;;;;6.72;2.20;;;14.20;72.30;;;;;;348211;28;995;-53
2024/01/18 00:42:27;;;;;;;8.00;2.38;;;14.20;72.30;;;;;;348291;28;992;-55
2024/01/18 00:42:38;;;;;;;6.78;2.08;;;14.30;72.30;;;;;;348277;28;988;-53
2024/01/18 00:42:48;;;;;;;6.78;2.35;;;14.30;72.20;;;;;;348069;28;2004;-52
2024/01/18 00:42:59;;;;;;;7.27;3.10;;;14.30;72.20;;;;;;348303;28;1752;-53
2024/01/18 00:43:10;;;;;;;9.20;3.67;;;14.40;72.10;;;;;;348325;28;801;-53
2024/01/18 00:43:21;;;;;;;8.18;3.10;;;14.40;72.00;;;;;;348192;28;1044;-53
2024/01/18 00:43:32;;;;;;;7.07;2.63;;;14.40;72.00;;;;;;348286;28;1094;-53
2024/01/18 00:43:43;;;;;;;6.85;2.20;;;14.40;72.00;;;;;;348303;28;1023;-52
2024/01/18 00:43:53;;;;;;;6.47;2.17;;;14.40;71.90;;;;;;348251;28;903;-52
2024/01/18 00:44:04;;;;;;;5.75;1.98;;;14.50;71.90;;;;;;348234;28;1134;-53
2024/01/18 00:44:15;;;;;;;5.22;1.77;;;14.40;71.90;;;;;;348252;28;1114;-52
2024/01/18 00:44:26;;;;;;;5.38;1.40;;;14.40;71.80;;;;;;348228;28;1094;-53
2024/01/18 00:44:37;;;;;;;5.97;1.57;;;14.40;71.80;;;;;;348373;28;1034;-53
2024/01/18 00:44:47;;;;;;;6.70;1.67;;;14.40;71.80;;;;;;348304;28;979;-53
2024/01/18 00:44:58;;;;;;;7.03;1.77;;;14.40;71.70;;;;;;348223;28;1619;-54
2024/01/18 00:45:09;;;;;;;8.90;4.15;;;14.40;71.70;;;;;;348292;28;1562;-53
2024/01/18 00:45:20;;;;;;;12.32;6.25;;;14.40;71.80;;;;;;348232;28;1626;-53
2024/01/18 00:45:31;;;;;;;13.20;6.87;;;14.40;71.80;;;;;;348229;28;1419;-54
2024/01/18 00:45:41;;;;;;;11.70;4.93;;;14.40;71.60;;;;;;348254;28;1161;-53
2024/01/18 00:45:52;;;;;;;8.07;2.80;;;14.30;71.60;;;;;;348305;28;916;-53
2024/01/18 00:46:04;;;;;;;8.68;2.85;;;14.30;71.90;;;;;;348199;28;1165;-52
2024/01/18 00:46:19;;;;;;;11.40;3.40;;;14.20;72.00;;;;;;348291;28;1119;-53
2024/01/18 00:46:29;;;;;;;11.57;3.25;;;14.20;72.10;;;;;;348260;28;935;-52
2024/01/18 00:46:40;;;;;;;7.00;2.28;;;14.20;72.20;;;;;;348321;28;908;-53
2024/01/18 00:46:51;;;;;;;6.30;2.17;;;14.20;72.30;;;;;;348255;28;981;-53
2024/01/18 00:47:02;;;;;;;6.35;2.28;;;14.20;72.30;;;;;;348334;28;1050;-53
2024/01/18 00:47:13;;;;;;;7.33;2.17;;;14.20;72.50;;;;;;348199;28;1094;-52
2024/01/18 00:47:25;;;;;;;7.50;2.42;;;14.20;72.50;;;;;;348289;28;1062;-52
2024/01/18 00:47:36;;;;;;;7.90;2.85;;;14.20;72.50;;;;;;348335;28;1023;-54
2024/01/18 00:47:46;;;;;;;7.32;3.03;;;14.20;72.40;;;;;;348247;28;1027;-52
2024/01/18 00:47:57;;;;;;;7.85;2.88;;;14.20;72.40;;;;;;348256;28;1463;-52
2024/01/18 00:48:08;;;;;;;9.90;3.33;;;14.20;72.30;;;;;;348296;28;889;-52
2024/01/18 00:48:19;;;;;;;12.73;4.63;;;14.20;72.20;;;;;;348181;28;1110;-52
2024/01/18 00:48:30;;;;;;;13.07;4.80;;;14.20;72.20;;;;;;348275;28;1108;-52
2024/01/18 00:48:40;;;;;;;10.68;3.67;;;14.20;72.00;;;;;;348322;28;892;-52
2024/01/18 00:48:51;;;;;;;8.05;1.98;;;14.10;72.20;;;;;;348287;28;1140;-53
2024/01/18 00:49:02;;;;;;;6.85;1.67;;;14.20;72.40;;;;;;348349;28;948;-53
2024/01/18 00:49:13;;;;;;;8.00;1.87;;;14.10;72.40;;;;;;348201;28;1395;-53
2024/01/18 00:49:23;;;;;;;8.38;2.00;;;14.20;72.40;;;;;;348143;28;1411;-52
2024/01/18 00:49:34;;;;;;;8.27;2.33;;;14.10;72.50;;;;;;348292;28;1082;-53
2024/01/18 00:49:45;;;;;;;7.82;2.33;;;14.20;72.50;;;;;;348247;28;1182;-52
2024/01/18 00:49:56;;;;;;;8.45;2.40;;;14.20;72.40;;;;;;348225;28;944;-54
2024/01/18 00:50:07;;;;;;;9.03;2.53;;;14.20;72.40;;;;;;348260;28;1701;-53
2024/01/18 00:50:18;;;;;;;9.54;3.54;;;14.20;72.30;;;;;;348339;28;872;-53
2024/01/18 00:50:28;;;;;;;10.20;4.33;;;14.20;72.20;;;;;;348202;28;1027;-53
2024/01/18 00:50:39;;;;;;;11.38;5.35;;;14.30;72.20;;;;;;348328;28;951;-54
2024/01/18 00:50:50;;;;;;;10.70;5.53;;;14.30;72.10;;;;;;348283;28;1114;-53
2024/01/18 00:51:00;;;;;;;9.70;4.90;;;14.30;72.10;;;;;;348184;28;1551;-52
2024/01/18 00:51:12;;;;;;;8.73;3.67;;;14.40;72.10;;;;;;348270;28;1018;-53
2024/01/18 00:51:22;;;;;;;8.50;2.78;;;14.40;72.00;;;;;;348291;28;1106;-52
2024/01/18 00:51:33;;;;;;;8.32;2.42;;;14.40;71.80;;;;;;348207;28;1199;-53
2024/01/18 00:51:44;;;;;;;9.00;2.30;;;14.40;71.70;;;;;;348292;28;1113;-52
2024/01/18 00:51:55;;;;;;;9.60;2.17;;;14.40;71.50;;;;;;348323;28;793;-53
2024/01/18 00:52:05;;;;;;;10.40;2.22;;;14.40;71.30;;;;;;348263;28;895;-53
2024/01/18 00:52:16;;;;;;;8.80;2.33;;;14.40;71.40;;;;;;348230;28;1111;-54
2024/01/18 00:52:27;;;;;;;7.72;2.47;;;14.40;71.40;;;;;;348322;28;991;-52
2024/01/18 00:52:38;;;;;;;9.13;3.33;;;14.50;71.50;;;;;;348282;28;1016;-53
2024/01/18 00:52:48;;;;;;;10.77;3.97;;;14.40;71.50;;;;;;348279;28;1011;-53
2024/01/18 00:52:59;;;;;;;11.85;5.20;;;14.50;71.50;;;;;;348322;28;952;-53
2024/01/18 00:53:10;;;;;;;10.50;4.78;;;14.50;71.40;;;;;;348205;28;1153;-53
2024/01/18 00:53:21;;;;;;;11.07;4.27;;;14.50;71.40;;;;;;348279;28;849;-53
2024/01/18 00:53:31;;;;;;;10.73;2.78;;;14.50;71.30;;;;;;348297;28;996;-53
2024/01/18 00:53:42;;;;;;;9.32;2.10;;;14.50;71.00;;;;;;348157;28;1469;-53
2024/01/18 00:53:53;;;;;;;9.88;2.20;;;14.40;70.90;;;;;;348281;28;869;-53
2024/01/18 00:54:04;;;;;;;11.95;2.70;;;14.40;71.00;;;;;;348304;28;1095;-53
2024/01/18 00:54:15;;;;;;;13.30;2.72;;;14.30;71.00;;;;;;348205;28;882;-53
2024/01/18 00:54:25;;;;;;;11.00;2.50;;;14.30;71.30;;;;;;348267;28;1153;-53
2024/01/18 00:54:36;;;;;;;9.68;2.40;;;14.20;71.50;;;;;;348293;28;1007;-53
2024/01/18 00:54:47;;;;;;;8.50;2.38;;;14.20;71.60;;;;;;348213;28;975;-53
2024/01/18 00:54:58;;;;;;;7.90;2.25;;;14.30;71.60;;;;;;348330;28;989;-52
2024/01/18 00:55:10;;;;;;;8.35;2.53;;;14.30;71.50;;;;;;348350;28;842;-51
2024/01/18 00:55:20;;;;;;;7.43;2.45;;;14.30;71.50;;;;;;348201;28;1094;-52
2024/01/18 00:55:34;;;;;;;7.22;2.30;;;14.30;71.40;;;;;;348322;28;805;-53
2024/01/18 00:55:45;;;;;;;8.23;2.00;;;14.30;71.30;;;;;;348158;28;1145;-53
2024/01/18 00:55:56;;;;;;;7.97;2.33;;;14.30;71.30;;;;;;348234;28;1606;-52
2024/01/18 00:56:09;;;;;;;8.05;2.30;;;14.40;71.30;;;;;;348347;28;825;-52
2024/01/18 00:56:20;;;;;;;9.02;2.38;;;14.40;71.30;;;;;;348119;28;1082;-52
2024/01/18 00:56:31;;;;;;;9.63;2.43;;;14.40;71.20;;;;;;348305;28;971;-53
2024/01/18 00:56:42;;;;;;;9.50;2.58;;;14.40;71.20;;;;;;348173;28;1086;-53
2024/01/18 00:56:52;;;;;;;9.63;2.50;;;14.40;71.10;;;;;;348293;28;999;-53
2024/01/18 00:57:03;;;;;;;8.75;2.40;;;14.50;71.10;;;;;;348216;28;1441;-52
2024/01/18 00:57:14;;;;;;;8.80;2.40;;;14.40;70.90;;;;;;348152;28;1098;-52
2024/01/18 00:57:25;;;;;;;8.97;2.30;;;14.40;70.90;;;;;;348316;28;1733;-52
2024/01/18 00:57:36;;;;;;;8.25;2.03;;;14.50;70.80;;;;;;348268;28;1379;-52
2024/01/18 00:57:46;;;;;;;9.30;2.10;;;14.40;70.80;;;;;;348187;28;1024;-53
2024/01/18 00:57:58;;;;;;;8.77;2.20;;;14.50;70.80;;;;;;348308;28;1006;-53
2024/01/18 00:58:09;;;;;;;8.50;2.10;;;14.50;70.80;;;;;;348243;28;1165;-51
2024/01/18 00:58:19;;;;;;;7.03;1.90;;;14.50;70.80;;;;;;348121;28;1898;-53
2024/01/18 00:58:30;;;;;;;7.25;2.08;;;14.40;70.60;;;;;;348223;28;1610;-53
2024/01/18 00:58:41;;;;;;;8.35;2.30;;;14.40;70.70;;;;;;348271;28;991;-52
2024/01/18 00:58:51;;;;;;;9.67;2.50;;;14.40;70.70;;;;;;348199;28;1039;-53